Ayrshire, Iowa
Current Conditions -  °F | °C
As of 10:53 PM on Thursday 27 Nov 2014 (Local Time) from KSPW Reporting Station
Scattered Clouds Scattered Clouds  
Wind Chill: -5°   Ceiling: Unl
Heat Index: 12°   Visibility: 10mi
Dew Point:   Wind: 17mph
Humidity: 67%   Direction: 140°SE
Pressure: 30.14"   Gusts: NA
Location:  43.04°N, 94.83°W
Report Text: KSPW 280453Z AUTO 14015KT 10SM SCT120 M11/M16 A3014 RMK AO2 SLP239 T11111161 TSNO $
Loading
Personal Weather Stations






























Interactive Weather Map New forecast layout! Learn more

10-Day Weather Forecast

Advertisements
Track Severe Weather on mobile